Terminal Aerodrome Forecast
Issued by NWS

Home | Current Version | Previous Version | Text Only | Print | Product List | Glossary On
Versions: 1 2 3 4 5 6 7 8 9 10 11 12 13 14 15 16
000
FTUS42 KRAH 251125
TAFRWI
TAF
KRWI 251125Z 2512/2612 21004KT P6SM SCT011
      TEMPO 2512/2513 5SM BR BKN006
     FM251800 21008KT P6SM SCT060 SCT250
     FM260900 20003KT 4SM BR SCT005=

USA.gov is the U.S. government's official web portal to all federal, state and local government web resources and services.